sensor_id;sensor_type;location;lat;lon;timestamp;pressure;altitude;pressure_sealevel;temperature;humidity
70229;BME280;57617;51.988;5.854;2023-08-07T00:00:12;100716.00;;;17.31;74.16
70229;BME280;57617;51.988;5.854;2023-08-07T00:02:37;100728.59;;;17.37;73.96
70229;BME280;57617;51.988;5.854;2023-08-07T00:05:03;100721.16;;;17.37;73.59
70229;BME280;57617;51.988;5.854;2023-08-07T00:07:28;100717.88;;;17.41;73.98
70229;BME280;57617;51.988;5.854;2023-08-07T00:09:54;100714.56;;;17.44;73.54
70229;BME280;57617;51.988;5.854;2023-08-07T00:12:19;100720.06;;;17.44;73.71
70229;BME280;57617;51.988;5.854;2023-08-07T00:14:47;100718.97;;;17.40;73.63
70229;BME280;57617;51.988;5.854;2023-08-07T00:17:12;100715.13;;;17.35;73.68
70229;BME280;57617;51.988;5.854;2023-08-07T00:19:38;100720.91;;;17.34;73.74
70229;BME280;57617;51.988;5.854;2023-08-07T00:22:03;100723.13;;;17.32;73.86
70229;BME280;57617;51.988;5.854;2023-08-07T00:24:29;100715.19;;;17.30;73.90
70229;BME280;57617;51.988;5.854;2023-08-07T00:26:54;100720.66;;;17.30;73.66
70229;BME280;57617;51.988;5.854;2023-08-07T00:29:19;100723.41;;;17.30;73.67
70229;BME280;57617;51.988;5.854;2023-08-07T00:31:44;100716.56;;;17.28;73.65
70229;BME280;57617;51.988;5.854;2023-08-07T00:34:10;100721.53;;;17.26;73.87
70229;BME280;57617;51.988;5.854;2023-08-07T00:36:35;100730.06;;;17.24;73.91
70229;BME280;57617;51.988;5.854;2023-08-07T00:39:01;100736.66;;;17.23;73.80
70229;BME280;57617;51.988;5.854;2023-08-07T00:41:29;100720.19;;;17.23;73.76
70229;BME280;57617;51.988;5.854;2023-08-07T00:43:54;100724.31;;;17.21;73.86
70229;BME280;57617;51.988;5.854;2023-08-07T00:46:19;100739.13;;;17.20;73.90
70229;BME280;57617;51.988;5.854;2023-08-07T00:48:45;100730.66;;;17.16;74.28
70229;BME280;57617;51.988;5.854;2023-08-07T00:51:11;100736.97;;;17.17;74.17
70229;BME280;57617;51.988;5.854;2023-08-07T00:53:38;100736.97;;;17.17;74.02
70229;BME280;57617;51.988;5.854;2023-08-07T00:56:04;100748.75;;;17.17;74.13
70229;BME280;57617;51.988;5.854;2023-08-07T00:58:29;100747.72;;;17.13;74.01
70229;BME280;57617;51.988;5.854;2023-08-07T01:00:55;100754.59;;;17.11;74.17
70229;BME280;57617;51.988;5.854;2023-08-07T01:03:20;100757.03;;;17.12;74.41
70229;BME280;57617;51.988;5.854;2023-08-07T01:05:46;100750.47;;;17.13;74.39
70229;BME280;57617;51.988;5.854;2023-08-07T01:08:11;100747.41;;;17.15;74.07
70229;BME280;57617;51.988;5.854;2023-08-07T01:16:14;100749.91;;;17.11;73.86
70229;BME280;57617;51.988;5.854;2023-08-07T01:18:44;100751.81;;;17.16;74.14
70229;BME280;57617;51.988;5.854;2023-08-07T01:21:19;100728.00;;;17.01;73.79
70229;BME280;57617;51.988;5.854;2023-08-07T01:23:47;100758.66;;;17.18;73.95
70229;BME280;57617;51.988;5.854;2023-08-07T01:26:13;100759.75;;;17.17;73.91
70229;BME280;57617;51.988;5.854;2023-08-07T01:28:43;100750.97;;;17.15;73.90
70229;BME280;57617;51.988;5.854;2023-08-07T01:31:14;100760.31;;;17.14;73.52
70229;BME280;57617;51.988;5.854;2023-08-07T01:33:54;100768.28;;;17.16;73.66
70229;BME280;57617;51.988;5.854;2023-08-07T01:36:23;100766.34;;;17.16;73.89
70229;BME280;57617;51.988;5.854;2023-08-07T01:38:50;100772.38;;;17.18;73.53
70229;BME280;57617;51.988;5.854;2023-08-07T01:41:16;100771.00;;;17.21;73.76
70229;BME280;57617;51.988;5.854;2023-08-07T01:43:41;100764.19;;;17.13;73.62
70229;BME280;57617;51.988;5.854;2023-08-07T01:46:06;100769.94;;;17.12;73.90
70229;BME280;57617;51.988;5.854;2023-08-07T01:48:32;100767.22;;;17.12;74.13
70229;BME280;57617;51.988;5.854;2023-08-07T01:50:57;100766.34;;;17.16;73.83
70229;BME280;57617;51.988;5.854;2023-08-07T01:53:22;100772.91;;;17.20;73.91
70229;BME280;57617;51.988;5.854;2023-08-07T01:55:48;100778.91;;;17.22;73.70
70229;BME280;57617;51.988;5.854;2023-08-07T01:58:13;100770.69;;;17.22;73.51
70229;BME280;57617;51.988;5.854;2023-08-07T02:00:38;100772.91;;;17.20;73.38
70229;BME280;57617;51.988;5.854;2023-08-07T02:03:04;100776.47;;;17.21;73.72
70229;BME280;57617;51.988;5.854;2023-08-07T02:05:29;100772.91;;;17.20;73.70
70229;BME280;57617;51.988;5.854;2023-08-07T02:07:54;100777.88;;;17.18;73.64
70229;BME280;57617;51.988;5.854;2023-08-07T02:10:21;100778.94;;;17.17;73.85
70229;BME280;57617;51.988;5.854;2023-08-07T02:12:48;100789.38;;;17.20;73.81
70229;BME280;57617;51.988;5.854;2023-08-07T02:15:13;100783.59;;;17.22;73.79
70229;BME280;57617;51.988;5.854;2023-08-07T02:17:38;100788.03;;;17.18;73.55
70229;BME280;57617;51.988;5.854;2023-08-07T02:20:06;100781.16;;;17.20;73.87
70229;BME280;57617;51.988;5.854;2023-08-07T02:22:32;100785.00;;;17.19;73.77
70229;BME280;57617;51.988;5.854;2023-08-07T02:24:57;100795.41;;;17.17;73.87
70229;BME280;57617;51.988;5.854;2023-08-07T02:27:22;100797.38;;;17.17;73.95
70229;BME280;57617;51.988;5.854;2023-08-07T02:29:48;100794.59;;;17.22;74.08
70229;BME280;57617;51.988;5.854;2023-08-07T02:32:13;100784.47;;;17.12;73.61
70229;BME280;57617;51.988;5.854;2023-08-07T02:34:38;100802.78;;;17.27;73.69
70229;BME280;57617;51.988;5.854;2023-08-07T02:37:04;100794.56;;;17.27;73.72
70229;BME280;57617;51.988;5.854;2023-08-07T02:39:29;100798.38;;;17.31;73.49
70229;BME280;57617;51.988;5.854;2023-08-07T02:41:54;100797.00;;;17.33;73.62
70229;BME280;57617;51.988;5.854;2023-08-07T02:44:20;100806.59;;;17.36;73.67
70229;BME280;57617;51.988;5.854;2023-08-07T02:46:46;100793.38;;;17.38;73.59
70229;BME280;57617;51.988;5.854;2023-08-07T02:49:11;100794.47;;;17.42;73.29
70229;BME280;57617;51.988;5.854;2023-08-07T02:51:37;100799.16;;;17.42;73.22
70229;BME280;57617;51.988;5.854;2023-08-07T02:54:02;100798.03;;;17.37;73.17
70229;BME280;57617;51.988;5.854;2023-08-07T02:56:27;100784.72;;;17.21;73.21
70229;BME280;57617;51.988;5.854;2023-08-07T02:58:53;100790.66;;;17.33;73.44
70229;BME280;57617;51.988;5.854;2023-08-07T03:01:19;100790.69;;;17.28;73.58
70229;BME280;57617;51.988;5.854;2023-08-07T03:03:44;100788.47;;;17.30;73.54
70229;BME280;57617;51.988;5.854;2023-08-07T03:06:10;100788.50;;;17.25;73.57
70229;BME280;57617;51.988;5.854;2023-08-07T03:08:35;100790.47;;;17.24;73.54
70229;BME280;57617;51.988;5.854;2023-08-07T03:11:00;100790.72;;;17.23;73.54
70229;BME280;57617;51.988;5.854;2023-08-07T03:13:26;100779.22;;;17.21;73.88
70229;BME280;57617;51.988;5.854;2023-08-07T03:16:02;100792.97;;;17.21;73.39
70229;BME280;57617;51.988;5.854;2023-08-07T03:18:29;100787.47;;;17.21;73.80
70229;BME280;57617;51.988;5.854;2023-08-07T03:20:57;100793.75;;;17.21;73.54
70229;BME280;57617;51.988;5.854;2023-08-07T03:23:24;100787.94;;;17.28;73.59
70229;BME280;57617;51.988;5.854;2023-08-07T03:25:50;100794.28;;;17.28;73.68
70229;BME280;57617;51.988;5.854;2023-08-07T03:28:16;100788.78;;;17.28;73.42
70229;BME280;57617;51.988;5.854;2023-08-07T03:30:41;100786.03;;;17.28;73.50
70229;BME280;57617;51.988;5.854;2023-08-07T03:33:07;100783.81;;;17.30;73.24
70229;BME280;57617;51.988;5.854;2023-08-07T03:35:32;100777.81;;;17.28;73.54
70229;BME280;57617;51.988;5.854;2023-08-07T03:37:58;100780.25;;;17.30;73.42
70229;BME280;57617;51.988;5.854;2023-08-07T03:40:23;100772.00;;;17.30;73.48
70229;BME280;57617;51.988;5.854;2023-08-07T03:42:48;100773.94;;;17.29;73.36
70229;BME280;57617;51.988;5.854;2023-08-07T03:45:14;100767.34;;;17.30;73.40
70229;BME280;57617;51.988;5.854;2023-08-07T03:47:39;100772.00;;;17.30;73.42
70229;BME280;57617;51.988;5.854;2023-08-07T03:50:05;100767.63;;;17.29;73.37
70229;BME280;57617;51.988;5.854;2023-08-07T03:52:30;100767.34;;;17.30;73.23
70229;BME280;57617;51.988;5.854;2023-08-07T03:54:56;100771.25;;;17.24;73.43
70229;BME280;57617;51.988;5.854;2023-08-07T03:57:21;100758.06;;;17.21;73.46
70229;BME280;57617;51.988;5.854;2023-08-07T03:59:46;100769.59;;;17.23;73.43
70229;BME280;57617;51.988;5.854;2023-08-07T04:02:12;100764.66;;;17.20;73.62
70229;BME280;57617;51.988;5.854;2023-08-07T04:04:37;100756.97;;;17.22;73.63
70229;BME280;57617;51.988;5.854;2023-08-07T04:07:02;100772.34;;;17.23;73.33
70229;BME280;57617;51.988;5.854;2023-08-07T04:09:28;100753.16;;;17.18;73.47
70229;BME280;57617;51.988;5.854;2023-08-07T04:11:53;100757.31;;;17.16;73.76
70229;BME280;57617;51.988;5.854;2023-08-07T04:14:19;100749.34;;;17.14;73.72
70229;BME280;57617;51.988;5.854;2023-08-07T04:16:44;100758.38;;;17.15;73.46
70229;BME280;57617;51.988;5.854;2023-08-07T04:19:10;100756.25;;;17.07;73.71
70229;BME280;57617;51.988;5.854;2023-08-07T04:21:35;100765.28;;;17.07;73.98
70229;BME280;57617;51.988;5.854;2023-08-07T04:24:01;100763.09;;;17.09;74.01
70229;BME280;57617;51.988;5.854;2023-08-07T04:26:26;100771.06;;;17.11;74.08
70229;BME280;57617;51.988;5.854;2023-08-07T04:28:52;100780.94;;;17.12;73.92
70229;BME280;57617;51.988;5.854;2023-08-07T04:31:17;100782.03;;;17.11;74.05
70229;BME280;57617;51.988;5.854;2023-08-07T04:33:42;100772.13;;;17.10;73.86
70229;BME280;57617;51.988;5.854;2023-08-07T04:36:08;100789.13;;;17.17;73.77
70229;BME280;57617;51.988;5.854;2023-08-07T04:38:33;100774.56;;;17.16;73.78
70229;BME280;57617;51.988;5.854;2023-08-07T04:40:59;100788.53;;;17.20;73.78
70229;BME280;57617;51.988;5.854;2023-08-07T04:43:24;100791.03;;;17.16;73.95
70229;BME280;57617;51.988;5.854;2023-08-07T04:45:49;100791.06;;;17.11;74.14
70229;BME280;57617;51.988;5.854;2023-08-07T04:48:15;100794.94;;;17.10;74.12
70229;BME280;57617;51.988;5.854;2023-08-07T04:50:41;100789.97;;;17.12;73.85
70229;BME280;57617;51.988;5.854;2023-08-07T04:53:06;100788.56;;;17.15;74.10
70229;BME280;57617;51.988;5.854;2023-08-07T04:55:32;100796.53;;;17.16;74.12
70229;BME280;57617;51.988;5.854;2023-08-07T04:57:58;100792.69;;;17.17;74.05
70229;BME280;57617;51.988;5.854;2023-08-07T05:00:23;100799.28;;;17.16;74.11
70229;BME280;57617;51.988;5.854;2023-08-07T05:02:49;100801.75;;;17.18;74.10
70229;BME280;57617;51.988;5.854;2023-08-07T05:05:15;100809.47;;;17.16;74.07
70229;BME280;57617;51.988;5.854;2023-08-07T05:07:41;100805.88;;;17.15;74.24
70229;BME280;57617;51.988;5.854;2023-08-07T05:10:07;100808.91;;;17.14;74.33
70229;BME280;57617;51.988;5.854;2023-08-07T05:12:32;100809.19;;;17.12;74.50
70229;BME280;57617;51.988;5.854;2023-08-07T05:14:58;100815.47;;;17.18;74.32
70229;BME280;57617;51.988;5.854;2023-08-07T05:17:23;100807.50;;;17.16;74.46
70229;BME280;57617;51.988;5.854;2023-08-07T05:19:49;100819.59;;;17.15;74.41
70229;BME280;57617;51.988;5.854;2023-08-07T05:22:15;100818.78;;;17.15;74.64
70229;BME280;57617;51.988;5.854;2023-08-07T05:24:40;100820.44;;;17.16;74.76
70229;BME280;57617;51.988;5.854;2023-08-07T05:27:07;100825.63;;;17.17;74.73
70229;BME280;57617;51.988;5.854;2023-08-07T05:29:33;100829.47;;;17.16;74.53
70229;BME280;57617;51.988;5.854;2023-08-07T05:31:59;100826.44;;;17.18;74.60
70229;BME280;57617;51.988;5.854;2023-08-07T05:34:25;100838.78;;;17.20;74.59
70229;BME280;57617;51.988;5.854;2023-08-07T05:36:51;100838.00;;;17.15;74.83
70229;BME280;57617;51.988;5.854;2023-08-07T05:39:16;100843.19;;;17.16;74.78
70229;BME280;57617;51.988;5.854;2023-08-07T05:41:42;100842.41;;;17.16;74.76
70229;BME280;57617;51.988;5.854;2023-08-07T05:44:07;100846.78;;;17.17;74.72
70229;BME280;57617;51.988;5.854;2023-08-07T05:46:32;100848.41;;;17.18;75.04
70229;BME280;57617;51.988;5.854;2023-08-07T05:48:58;100835.03;;;17.06;74.74
70229;BME280;57617;51.988;5.854;2023-08-07T05:51:23;100860.19;;;17.23;74.94
70229;BME280;57617;51.988;5.854;2023-08-07T05:53:48;100861.56;;;17.26;74.88
70229;BME280;57617;51.988;5.854;2023-08-07T05:56:14;100854.72;;;17.23;74.93
70229;BME280;57617;51.988;5.854;2023-08-07T05:58:39;100860.97;;;17.29;74.72
70229;BME280;57617;51.988;5.854;2023-08-07T06:01:05;100864.00;;;17.27;75.01
70229;BME280;57617;51.988;5.854;2023-08-07T06:03:31;100863.19;;;17.27;75.03
70229;BME280;57617;51.988;5.854;2023-08-07T06:05:57;100868.94;;;17.30;74.55
70229;BME280;57617;51.988;5.854;2023-08-07T06:08:22;100874.94;;;17.32;75.33
70229;BME280;57617;51.988;5.854;2023-08-07T06:10:47;100874.41;;;17.35;75.01
70229;BME280;57617;51.988;5.854;2023-08-07T06:13:13;100882.38;;;17.32;74.77
70229;BME280;57617;51.988;5.854;2023-08-07T06:15:38;100880.19;;;17.29;74.82
70229;BME280;57617;51.988;5.854;2023-08-07T06:18:04;100888.41;;;17.34;75.08
70229;BME280;57617;51.988;5.854;2023-08-07T06:20:29;100888.97;;;17.36;74.91
70229;BME280;57617;51.988;5.854;2023-08-07T06:22:55;100895.84;;;17.39;74.83
70229;BME280;57617;51.988;5.854;2023-08-07T06:25:20;100894.72;;;17.40;74.88
70229;BME280;57617;51.988;5.854;2023-08-07T06:27:46;100901.59;;;17.42;74.84
70229;BME280;57617;51.988;5.854;2023-08-07T06:30:11;100907.88;;;17.42;74.76
70229;BME280;57617;51.988;5.854;2023-08-07T06:32:37;100908.44;;;17.45;74.78
70229;BME280;57617;51.988;5.854;2023-08-07T06:35:03;100903.50;;;17.42;74.53
70229;BME280;57617;51.988;5.854;2023-08-07T06:37:29;100908.19;;;17.41;74.94
70229;BME280;57617;51.988;5.854;2023-08-07T06:39:55;100915.56;;;17.46;75.22
70229;BME280;57617;51.988;5.854;2023-08-07T06:42:20;100920.19;;;17.50;75.09
70229;BME280;57617;51.988;5.854;2023-08-07T06:44:46;100915.25;;;17.52;75.04
70229;BME280;57617;51.988;5.854;2023-08-07T06:47:12;100910.00;;;17.56;75.02
70229;BME280;57617;51.988;5.854;2023-08-07T06:49:37;100907.75;;;17.63;75.02
70229;BME280;57617;51.988;5.854;2023-08-07T06:52:03;100909.13;;;17.65;74.86
70229;BME280;57617;51.988;5.854;2023-08-07T06:54:28;100918.41;;;17.74;74.16
70229;BME280;57617;51.988;5.854;2023-08-07T06:56:53;100914.50;;;17.80;74.69
70229;BME280;57617;51.988;5.854;2023-08-07T06:59:19;100919.97;;;17.85;74.92
70229;BME280;57617;51.988;5.854;2023-08-07T07:01:44;100922.97;;;17.88;75.09
70229;BME280;57617;51.988;5.854;2023-08-07T07:04:09;100931.16;;;17.93;74.74
70229;BME280;57617;51.988;5.854;2023-08-07T07:06:37;100924.56;;;17.94;74.86
70229;BME280;57617;51.988;5.854;2023-08-07T07:09:02;100929.50;;;17.98;75.23
70229;BME280;57617;51.988;5.854;2023-08-07T07:11:28;100933.59;;;18.00;74.86
70229;BME280;57617;51.988;5.854;2023-08-07T07:13:53;100938.81;;;18.02;74.84
70229;BME280;57617;51.988;5.854;2023-08-07T07:16:19;100936.31;;;18.05;75.04
70229;BME280;57617;51.988;5.854;2023-08-07T07:18:46;100938.53;;;18.03;74.83
70229;BME280;57617;51.988;5.854;2023-08-07T07:21:12;100942.09;;;18.03;75.01
70229;BME280;57617;51.988;5.854;2023-08-07T07:23:37;100948.69;;;18.02;74.61
70229;BME280;57617;51.988;5.854;2023-08-07T07:26:02;100951.19;;;18.04;74.66
70229;BME280;57617;51.988;5.854;2023-08-07T07:28:27;100962.41;;;18.08;74.91
70229;BME280;57617;51.988;5.854;2023-08-07T07:30:53;100965.13;;;18.13;74.55
70229;BME280;57617;51.988;5.854;2023-08-07T07:33:18;100962.09;;;18.14;74.42
70229;BME280;57617;51.988;5.854;2023-08-07T07:35:43;100968.41;;;18.14;74.53
70229;BME280;57617;51.988;5.854;2023-08-07T07:38:09;100970.63;;;18.13;74.56
70229;BME280;57617;51.988;5.854;2023-08-07T07:40:35;100969.50;;;18.13;74.49
70229;BME280;57617;51.988;5.854;2023-08-07T07:43:00;100976.13;;;18.13;74.42
70229;BME280;57617;51.988;5.854;2023-08-07T07:45:26;100979.66;;;18.18;74.88
70229;BME280;57617;51.988;5.854;2023-08-07T07:47:51;100981.28;;;18.24;74.76
70229;BME280;57617;51.988;5.854;2023-08-07T07:50:16;100979.28;;;18.29;74.65
70229;BME280;57617;51.988;5.854;2023-08-07T07:52:42;100990.00;;;18.31;74.64
70229;BME280;57617;51.988;5.854;2023-08-07T07:55:08;100992.47;;;18.38;74.30
70229;BME280;57617;51.988;5.854;2023-08-07T07:57:34;100987.53;;;18.35;74.13
70229;BME280;57617;51.988;5.854;2023-08-07T08:00:00;100986.44;;;18.31;73.89
70229;BME280;57617;51.988;5.854;2023-08-07T08:02:26;100993.59;;;18.32;74.29
70229;BME280;57617;51.988;5.854;2023-08-07T08:04:51;100989.75;;;18.27;73.84
70229;BME280;57617;51.988;5.854;2023-08-07T08:07:17;100994.47;;;18.22;74.16
70229;BME280;57617;51.988;5.854;2023-08-07T08:09:42;101003.81;;;18.21;73.92
70229;BME280;57617;51.988;5.854;2023-08-07T08:12:08;100994.19;;;18.23;74.03
70229;BME280;57617;51.988;5.854;2023-08-07T08:14:34;101008.75;;;18.24;74.01
70229;BME280;57617;51.988;5.854;2023-08-07T08:16:59;101005.44;;;18.27;73.73
70229;BME280;57617;51.988;5.854;2023-08-07T08:19:24;101017.28;;;18.23;73.91
70229;BME280;57617;51.988;5.854;2023-08-07T08:21:50;101009.03;;;18.23;73.78
70229;BME280;57617;51.988;5.854;2023-08-07T08:24:15;101019.78;;;18.24;73.26
70229;BME280;57617;51.988;5.854;2023-08-07T08:26:40;101011.50;;;18.24;73.51
70229;BME280;57617;51.988;5.854;2023-08-07T08:29:06;101027.16;;;18.28;73.69
70229;BME280;57617;51.988;5.854;2023-08-07T08:31:33;101031.53;;;18.29;73.53
70229;BME280;57617;51.988;5.854;2023-08-07T08:33:58;101026.88;;;18.35;73.39
70229;BME280;57617;51.988;5.854;2023-08-07T08:36:23;101021.31;;;18.40;72.98
70229;BME280;57617;51.988;5.854;2023-08-07T08:38:49;101032.25;;;18.50;72.12
70229;BME280;57617;51.988;5.854;2023-08-07T08:41:16;101037.72;;;18.55;72.58
70229;BME280;57617;51.988;5.854;2023-08-07T08:43:45;101043.97;;;18.61;72.95
70229;BME280;57617;51.988;5.854;2023-08-07T08:46:14;101050.88;;;18.58;72.66
70229;BME280;57617;51.988;5.854;2023-08-07T08:48:40;101031.25;;;18.36;72.16
70229;BME280;57617;51.988;5.854;2023-08-07T08:51:08;101056.00;;;18.36;72.77
70229;BME280;57617;51.988;5.854;2023-08-07T08:53:34;101064.00;;;18.33;72.69
70229;BME280;57617;51.988;5.854;2023-08-07T08:56:00;101064.53;;;18.29;72.84
70229;BME280;57617;51.988;5.854;2023-08-07T08:58:26;101063.78;;;18.24;72.91
70229;BME280;57617;51.988;5.854;2023-08-07T09:00:52;101061.53;;;18.26;72.87
70229;BME280;57617;51.988;5.854;2023-08-07T09:03:18;101069.22;;;18.29;72.89
70229;BME280;57617;51.988;5.854;2023-08-07T09:05:45;101066.75;;;18.33;73.11
70229;BME280;57617;51.988;5.854;2023-08-07T09:08:11;101071.41;;;18.37;73.46
70229;BME280;57617;51.988;5.854;2023-08-07T09:10:37;101074.66;;;18.44;73.32
70229;BME280;57617;51.988;5.854;2023-08-07T09:13:04;101078.16;;;18.55;73.34
70229;BME280;57617;51.988;5.854;2023-08-07T09:15:32;101079.47;;;18.62;73.53
70229;BME280;57617;51.988;5.854;2023-08-07T09:17:58;101063.72;;;18.73;73.67
70229;BME280;57617;51.988;5.854;2023-08-07T09:20:24;101072.69;;;18.83;73.70
70229;BME280;57617;51.988;5.854;2023-08-07T09:22:50;101069.56;;;18.95;73.42
70229;BME280;57617;51.988;5.854;2023-08-07T09:25:32;101081.81;;;19.07;73.46
70229;BME280;57617;51.988;5.854;2023-08-07T09:28:01;101071.28;;;19.14;73.49
70229;BME280;57617;51.988;5.854;2023-08-07T09:30:29;101066.81;;;19.23;73.25
70229;BME280;57617;51.988;5.854;2023-08-07T09:32:59;101072.03;;;19.25;70.13
70229;BME280;57617;51.988;5.854;2023-08-07T09:35:25;101063.28;;;19.18;71.90
70229;BME280;57617;51.988;5.854;2023-08-07T09:37:50;101086.78;;;19.10;72.18
70229;BME280;57617;51.988;5.854;2023-08-07T09:40:17;101090.41;;;19.01;71.87
70229;BME280;57617;51.988;5.854;2023-08-07T09:42:43;101103.66;;;18.99;71.90
70229;BME280;57617;51.988;5.854;2023-08-07T09:45:22;101100.88;;;19.04;71.17
70229;BME280;57617;51.988;5.854;2023-08-07T09:48:01;101099.41;;;19.11;70.44
70229;BME280;57617;51.988;5.854;2023-08-07T09:50:28;101100.50;;;19.15;71.33
70229;BME280;57617;51.988;5.854;2023-08-07T09:52:54;101093.16;;;19.34;71.62
70229;BME280;57617;51.988;5.854;2023-08-07T09:55:23;101092.22;;;19.44;71.02
70229;BME280;57617;51.988;5.854;2023-08-07T09:57:49;101101.41;;;19.58;70.90
70229;BME280;57617;51.988;5.854;2023-08-07T10:00:15;101097.16;;;19.70;70.40
70229;BME280;57617;51.988;5.854;2023-08-07T10:02:41;101097.50;;;19.87;70.48
70229;BME280;57617;51.988;5.854;2023-08-07T10:05:10;101082.81;;;19.92;69.80
70229;BME280;57617;51.988;5.854;2023-08-07T10:07:39;101100.78;;;20.13;69.11
70229;BME280;57617;51.988;5.854;2023-08-07T10:10:06;101092.50;;;20.31;69.09
70229;BME280;57617;51.988;5.854;2023-08-07T10:12:32;101103.09;;;20.43;69.08
70229;BME280;57617;51.988;5.854;2023-08-07T10:14:59;101105.72;;;20.34;68.09
70229;BME280;57617;51.988;5.854;2023-08-07T10:17:25;101100.03;;;20.26;67.95
70229;BME280;57617;51.988;5.854;2023-08-07T10:19:51;101103.16;;;20.19;67.91
70229;BME280;57617;51.988;5.854;2023-08-07T10:22:18;101112.84;;;20.17;67.59
70229;BME280;57617;51.988;5.854;2023-08-07T10:24:47;101113.25;;;20.05;67.04
70229;BME280;57617;51.988;5.854;2023-08-07T10:27:15;101117.47;;;19.98;66.94
70229;BME280;57617;51.988;5.854;2023-08-07T10:29:42;101115.97;;;19.87;66.44
70229;BME280;57617;51.988;5.854;2023-08-07T10:32:09;101120.53;;;19.73;66.62
70229;BME280;57617;51.988;5.854;2023-08-07T10:34:36;101122.28;;;19.64;66.56
70229;BME280;57617;51.988;5.854;2023-08-07T10:37:02;101134.22;;;19.59;66.17
70229;BME280;57617;51.988;5.854;2023-08-07T10:39:27;101146.63;;;19.57;66.81
70229;BME280;57617;51.988;5.854;2023-08-07T10:41:53;101146.16;;;19.50;66.54
70229;BME280;57617;51.988;5.854;2023-08-07T10:44:24;101139.94;;;19.39;66.45
70229;BME280;57617;51.988;5.854;2023-08-07T10:46:54;101142.97;;;19.38;66.71
70229;BME280;57617;51.988;5.854;2023-08-07T10:49:40;101145.38;;;19.44;66.31
70229;BME280;57617;51.988;5.854;2023-08-07T10:52:11;101147.88;;;19.46;67.25
70229;BME280;57617;51.988;5.854;2023-08-07T10:54:44;101153.84;;;19.53;67.16
70229;BME280;57617;51.988;5.854;2023-08-07T10:57:14;101148.31;;;19.53;66.56
70229;BME280;57617;51.988;5.854;2023-08-07T11:02:24;101146.25;;;19.68;66.79
70229;BME280;57617;51.988;5.854;2023-08-07T11:04:52;101140.28;;;19.85;66.92
70229;BME280;57617;51.988;5.854;2023-08-07T11:07:28;101135.28;;;20.10;65.56
70229;BME280;57617;51.988;5.854;2023-08-07T11:09:54;101142.72;;;20.33;65.90
70229;BME280;57617;51.988;5.854;2023-08-07T11:12:20;101143.91;;;20.46;65.26
70229;BME280;57617;51.988;5.854;2023-08-07T11:14:46;101146.22;;;20.57;65.30
70229;BME280;57617;51.988;5.854;2023-08-07T11:17:12;101147.94;;;20.72;65.23
70229;BME280;57617;51.988;5.854;2023-08-07T11:19:38;101146.13;;;20.81;64.81
70229;BME280;57617;51.988;5.854;2023-08-07T11:22:03;101138.44;;;20.96;64.21
70229;BME280;57617;51.988;5.854;2023-08-07T11:24:29;101136.50;;;20.97;63.66
70229;BME280;57617;51.988;5.854;2023-08-07T11:26:56;101145.75;;;20.87;62.31
70229;BME280;57617;51.988;5.854;2023-08-07T11:29:22;101149.88;;;20.71;62.33
70229;BME280;57617;51.988;5.854;2023-08-07T11:31:50;101156.13;;;20.58;62.25
70229;BME280;57617;51.988;5.854;2023-08-07T11:34:18;101153.97;;;20.55;62.22
70229;BME280;57617;51.988;5.854;2023-08-07T11:36:44;101155.03;;;20.59;62.95
70229;BME280;57617;51.988;5.854;2023-08-07T11:39:11;101153.97;;;20.55;63.10
70229;BME280;57617;51.988;5.854;2023-08-07T11:41:37;101153.06;;;20.60;63.26
70229;BME280;57617;51.988;5.854;2023-08-07T11:44:02;101161.13;;;20.56;62.73
70229;BME280;57617;51.988;5.854;2023-08-07T11:46:28;101145.06;;;20.40;62.22
70229;BME280;57617;51.988;5.854;2023-08-07T11:48:55;101160.00;;;20.39;62.54
70229;BME280;57617;51.988;5.854;2023-08-07T11:51:22;101154.31;;;20.30;62.83
70229;BME280;57617;51.988;5.854;2023-08-07T11:53:47;101159.75;;;20.17;62.66
70229;BME280;57617;51.988;5.854;2023-08-07T11:56:13;101150.47;;;20.08;62.86
70229;BME280;57617;51.988;5.854;2023-08-07T11:58:47;101168.47;;;20.24;62.65
70229;BME280;57617;51.988;5.854;2023-08-07T12:01:20;101164.66;;;20.43;62.79
70229;BME280;57617;51.988;5.854;2023-08-07T12:06:29;101164.88;;;20.65;61.14
70229;BME280;57617;51.988;5.854;2023-08-07T12:08:56;101167.91;;;20.82;60.91
70229;BME280;57617;51.988;5.854;2023-08-07T12:11:22;101166.88;;;20.97;60.40
70229;BME280;57617;51.988;5.854;2023-08-07T12:13:48;101165.97;;;21.20;60.52
70229;BME280;57617;51.988;5.854;2023-08-07T12:16:14;101156.47;;;21.39;60.53
70229;BME280;57617;51.988;5.854;2023-08-07T12:18:51;101168.09;;;21.55;58.70
70229;BME280;57617;51.988;5.854;2023-08-07T12:21:18;101164.59;;;21.63;59.59
70229;BME280;57617;51.988;5.854;2023-08-07T12:23:45;101141.66;;;21.49;59.28
70229;BME280;57617;51.988;5.854;2023-08-07T12:26:14;101151.31;;;21.65;59.16
70229;BME280;57617;51.988;5.854;2023-08-07T12:28:39;101165.44;;;21.63;59.37
70229;BME280;57617;51.988;5.854;2023-08-07T12:31:05;101164.25;;;21.69;58.84
70229;BME280;57617;51.988;5.854;2023-08-07T12:33:32;101159.16;;;21.76;59.39
70229;BME280;57617;51.988;5.854;2023-08-07T12:35:58;101157.91;;;21.96;57.92
70229;BME280;57617;51.988;5.854;2023-08-07T12:38:24;101154.63;;;21.94;58.37
70229;BME280;57617;51.988;5.854;2023-08-07T12:40:50;101150.75;;;21.95;57.35
70229;BME280;57617;51.988;5.854;2023-08-07T12:43:16;101170.13;;;22.08;57.92
70229;BME280;57617;51.988;5.854;2023-08-07T12:45:41;101168.44;;;22.34;57.76
70229;BME280;57617;51.988;5.854;2023-08-07T12:48:07;101173.16;;;22.47;56.65
70229;BME280;57617;51.988;5.854;2023-08-07T12:50:32;101169.97;;;22.54;56.82
70229;BME280;57617;51.988;5.854;2023-08-07T12:52:58;101170.13;;;22.71;56.48
70229;BME280;57617;51.988;5.854;2023-08-07T12:55:23;101166.38;;;22.67;55.72